Time;durP1;ratioP1;P1;durP2;ratioP2;P2;SDS_P1;SDS_P2;PMS_P1;PMS_P2;Temp;Humidity;BMP_temperature;BMP_pressure;BME280_temperature;BME280_humidity;BME280_pressure;Samples;Min_cycle;Max_cycle;Signal;HPM_P1;HPM_P2
2021/05/04 00:01:49;;;;;;;3.33;2.70;;;;;;;;;;5068000;28;20203;-51
2021/05/04 00:04:17;;;;;;;2.23;2.03;;;;;;;;;;5062801;28;20209;-52
2021/05/04 00:06:44;;;;;;;3.90;2.53;;;;;;;;;;5065603;28;20232;-54
2021/05/04 00:09:09;;;;;;;22.33;1.87;;;;;;;;;;5064799;28;20189;-54
2021/05/04 00:11:37;;;;;;;1.67;1.47;;;;;;;;;;5060044;28;20181;-54
2021/05/04 00:14:03;;;;;;;2.23;2.03;;;;;;;;;;5065337;28;20213;-53
2021/05/04 00:16:31;;;;;;;1.97;1.77;;;;;;;;;;5060355;28;20248;-52
2021/05/04 00:18:58;;;;;;;1.60;1.50;;;;;;;;;;5061342;28;20224;-52
2021/05/04 00:21:26;;;;;;;3.40;2.60;;;;;;;;;;5066322;28;21448;-51
2021/05/04 00:23:51;;;;;;;2.33;2.00;;;;;;;;;;5064334;28;20197;-50
2021/05/04 00:26:19;;;;;;;1.00;0.90;;;;;;;;;;5064076;28;20227;-52
2021/05/04 00:28:46;;;;;;;1.67;1.57;;;;;;;;;;5061184;28;20191;-53
2021/05/04 00:31:14;;;;;;;1.83;1.43;;;;;;;;;;5062464;28;20227;-54
2021/05/04 00:33:44;;;;;;;2.30;2.10;;;;;;;;;;5070951;28;20973;-54
2021/05/04 00:36:09;;;;;;;1.77;1.57;;;;;;;;;;5068416;28;20263;-53
2021/05/04 00:38:37;;;;;;;4.17;1.97;;;;;;;;;;5066875;28;20177;-54
2021/05/04 00:41:02;;;;;;;2.20;2.00;;;;;;;;;;5068654;28;20237;-53
2021/05/04 00:43:32;;;;;;;1.93;1.67;;;;;;;;;;5048962;28;20685;-53
2021/05/04 00:46:00;;;;;;;2.73;1.93;;;;;;;;;;5065413;28;20256;-53
2021/05/04 00:48:28;;;;;;;3.87;2.10;;;;;;;;;;5067426;28;20250;-53
2021/05/04 00:50:54;;;;;;;2.83;2.00;;;;;;;;;;5058782;28;20281;-53
2021/05/04 00:53:19;;;;;;;4.33;2.60;;;;;;;;;;5064033;28;20280;-51
2021/05/04 00:55:47;;;;;;;4.80;2.67;;;;;;;;;;5047676;28;20237;-54
2021/05/04 00:58:12;;;;;;;1.37;1.27;;;;;;;;;;5067540;28;20188;-53
2021/05/04 01:00:38;;;;;;;3.23;2.33;;;;;;;;;;5059790;28;20744;-54
2021/05/04 01:03:03;;;;;;;2.63;2.00;;;;;;;;;;5060562;28;20296;-53
2021/05/04 01:05:29;;;;;;;2.80;2.37;;;;;;;;;;5060726;28;20205;-53
2021/05/04 01:07:54;;;;;;;2.23;1.97;;;;;;;;;;5066509;28;20187;-52
2021/05/04 01:10:24;;;;;;;3.57;2.53;;;;;;;;;;5062383;28;20181;-51
2021/05/04 01:12:49;;;;;;;5.43;2.83;;;;;;;;;;5062059;28;20176;-52
2021/05/04 01:15:14;;;;;;;2.70;2.33;;;;;;;;;;5058011;28;20588;-53
2021/05/04 01:17:42;;;;;;;4.67;2.87;;;;;;;;;;5066462;28;20182;-54
2021/05/04 01:20:08;;;;;;;4.87;3.40;;;;;;;;;;5062881;28;20227;-53
2021/05/04 01:22:35;;;;;;;3.93;2.70;;;;;;;;;;5052041;28;20189;-53
2021/05/04 01:25:00;;;;;;;2.50;2.00;;;;;;;;;;5062248;28;20243;-52
2021/05/04 01:27:26;;;;;;;3.93;2.93;;;;;;;;;;5062224;28;20661;-53
2021/05/04 01:29:51;;;;;;;3.20;2.27;;;;;;;;;;5065864;28;20193;-50
2021/05/04 01:32:19;;;;;;;4.10;1.90;;;;;;;;;;5067171;28;20170;-52
2021/05/04 01:34:46;;;;;;;3.20;1.97;;;;;;;;;;5062285;28;20266;-51
2021/05/04 01:37:14;;;;;;;2.97;2.33;;;;;;;;;;5061200;28;20186;-52
2021/05/04 01:39:44;;;;;;;3.70;2.70;;;;;;;;;;5064393;28;20266;-52
2021/05/04 01:42:12;;;;;;;4.67;2.93;;;;;;;;;;5065650;28;20269;-53
2021/05/04 01:44:39;;;;;;;3.93;2.40;;;;;;;;;;5067632;28;20583;-52
2021/05/04 01:47:04;;;;;;;4.03;2.97;;;;;;;;;;5063179;28;20270;-53
2021/05/04 01:49:30;;;;;;;4.07;3.27;;;;;;;;;;5064602;28;20269;-51
2021/05/04 01:51:56;;;;;;;4.60;2.83;;;;;;;;;;5055757;28;20178;-51
2021/05/04 01:54:24;;;;;;;3.30;2.67;;;;;;;;;;5065756;28;20186;-53
2021/05/04 01:56:50;;;;;;;2.77;2.37;;;;;;;;;;5063249;28;20181;-53
2021/05/04 01:59:18;;;;;;;3.57;2.70;;;;;;;;;;5065255;28;20764;-53
2021/05/04 02:01:45;;;;;;;5.37;2.73;;;;;;;;;;5046342;28;20231;-54
2021/05/04 02:04:11;;;;;;;3.30;2.43;;;;;;;;;;5065921;28;20215;-52
2021/05/04 02:06:38;;;;;;;2.80;2.50;;;;;;;;;;5065415;28;20650;-52
2021/05/04 02:09:04;;;;;;;4.50;2.33;;;;;;;;;;5066256;28;20177;-52
2021/05/04 02:11:30;;;;;;;3.33;2.37;;;;;;;;;;5048909;28;20272;-51
2021/05/04 02:13:57;;;;;;;5.17;2.90;;;;;;;;;;5050651;28;20264;-50
2021/05/04 02:16:27;;;;;;;2.97;2.50;;;;;;;;;;5065276;28;20216;-52
2021/05/04 02:18:53;;;;;;;2.60;1.77;;;;;;;;;;5063507;28;20231;-53
2021/05/04 02:21:20;;;;;;;2.63;2.03;;;;;;;;;;5064999;28;20194;-52
2021/05/04 02:23:46;;;;;;;3.07;2.37;;;;;;;;;;5065449;28;20262;-53
2021/05/04 02:26:12;;;;;;;2.40;2.10;;;;;;;;;;5064486;28;20193;-52
2021/05/04 02:28:38;;;;;;;3.53;2.83;;;;;;;;;;5065875;28;20184;-53
2021/05/04 02:31:03;;;;;;;3.83;3.00;;;;;;;;;;5066148;28;20173;-52
2021/05/04 02:33:29;;;;;;;3.63;2.80;;;;;;;;;;5048702;28;20185;-52
2021/05/04 02:35:57;;;;;;;4.03;2.90;;;;;;;;;;5066730;28;20208;-52
2021/05/04 02:38:24;;;;;;;3.10;2.80;;;;;;;;;;5047434;28;20202;-52
2021/05/04 02:40:54;;;;;;;2.83;2.43;;;;;;;;;;5066559;28;20192;-51
2021/05/04 02:43:20;;;;;;;3.13;2.60;;;;;;;;;;5047201;28;20229;-52
2021/05/04 02:45:47;;;;;;;4.73;2.63;;;;;;;;;;5064339;28;20198;-53
2021/05/04 02:48:12;;;;;;;5.33;2.73;;;;;;;;;;5056384;28;20182;-53
2021/05/04 02:50:37;;;;;;;5.03;3.30;;;;;;;;;;5044629;28;20597;-53
2021/05/04 02:53:02;;;;;;;3.03;2.03;;;;;;;;;;5047575;28;20293;-54
2021/05/04 02:55:30;;;;;;;4.20;3.30;;;;;;;;;;5050460;28;20743;-53
2021/05/04 02:57:55;;;;;;;4.87;2.80;;;;;;;;;;5066152;28;20186;-53
2021/05/04 03:00:21;;;;;;;4.53;3.10;;;;;;;;;;5060083;28;20189;-53
2021/05/04 03:02:46;;;;;;;3.30;2.77;;;;;;;;;;5065287;28;20625;-53
2021/05/04 03:05:11;;;;;;;4.97;3.67;;;;;;;;;;5051267;28;20209;-51
2021/05/04 03:07:38;;;;;;;4.63;2.30;;;;;;;;;;5057777;28;20186;-53
2021/05/04 03:10:04;;;;;;;6.40;3.83;;;;;;;;;;5064202;28;20191;-53
2021/05/04 03:12:32;;;;;;;4.13;3.33;;;;;;;;;;5049129;28;20276;-53
2021/05/04 03:14:59;;;;;;;5.40;3.40;;;;;;;;;;5067935;28;20219;-54
2021/05/04 03:17:27;;;;;;;5.80;3.97;;;;;;;;;;5060039;28;20220;-51
2021/05/04 03:19:54;;;;;;;4.17;3.30;;;;;;;;;;5064278;28;20197;-54
2021/05/04 03:22:19;;;;;;;4.83;3.30;;;;;;;;;;5059335;28;20190;-53
2021/05/04 03:24:47;;;;;;;2.30;1.90;;;;;;;;;;5060546;28;20213;-53
2021/05/04 03:27:17;;;;;;;3.40;3.07;;;;;;;;;;5064650;28;20185;-52
2021/05/04 03:29:42;;;;;;;5.53;3.13;;;;;;;;;;5066357;28;20546;-52
2021/05/04 03:32:12;;;;;;;4.13;3.17;;;;;;;;;;5063278;28;20181;-53
2021/05/04 03:34:39;;;;;;;6.27;3.80;;;;;;;;;;5068664;28;20821;-54
2021/05/04 03:37:07;;;;;;;3.97;3.23;;;;;;;;;;5062761;28;20211;-53
2021/05/04 03:39:36;;;;;;;5.83;3.50;;;;;;;;;;5061832;28;20192;-54
2021/05/04 03:42:04;;;;;;;5.80;3.20;;;;;;;;;;5064134;28;20216;-53
2021/05/04 03:44:31;;;;;;;4.90;3.50;;;;;;;;;;5051678;28;20255;-52
2021/05/04 03:46:57;;;;;;;5.13;4.63;;;;;;;;;;5068271;28;20264;-53
2021/05/04 03:49:24;;;;;;;6.03;3.97;;;;;;;;;;5067891;28;20189;-52
2021/05/04 03:51:52;;;;;;;8.83;4.07;;;;;;;;;;5068530;28;20181;-52
2021/05/04 03:54:17;;;;;;;5.83;3.93;;;;;;;;;;5061541;28;20240;-54
2021/05/04 03:56:42;;;;;;;4.90;3.73;;;;;;;;;;5070268;28;20185;-52
2021/05/04 03:59:07;;;;;;;6.70;4.07;;;;;;;;;;5068721;28;20185;-52
2021/05/04 04:01:35;;;;;;;5.37;4.30;;;;;;;;;;5069124;28;20570;-54
2021/05/04 04:04:00;;;;;;;7.20;4.00;;;;;;;;;;5061545;28;20209;-53
2021/05/04 04:06:25;;;;;;;5.43;4.13;;;;;;;;;;5069385;28;20208;-55
2021/05/04 04:08:53;;;;;;;5.30;3.70;;;;;;;;;;5066696;28;20780;-53
2021/05/04 04:11:22;;;;;;;5.50;3.83;;;;;;;;;;5068187;28;20227;-54
2021/05/04 04:13:48;;;;;;;7.33;4.57;;;;;;;;;;5052560;28;20277;-53
2021/05/04 04:16:15;;;;;;;5.03;3.57;;;;;;;;;;5068039;28;20299;-53
2021/05/04 04:18:42;;;;;;;5.80;4.23;;;;;;;;;;5059731;28;20231;-53
2021/05/04 04:21:10;;;;;;;6.47;4.57;;;;;;;;;;5063824;28;20332;-52
2021/05/04 04:23:37;;;;;;;5.30;4.23;;;;;;;;;;5051487;28;20293;-52
2021/05/04 04:26:05;;;;;;;5.23;3.50;;;;;;;;;;5065421;28;20727;-53
2021/05/04 04:28:32;;;;;;;4.27;3.40;;;;;;;;;;5061783;28;20320;-51
2021/05/04 04:30:59;;;;;;;5.77;3.53;;;;;;;;;;5065893;28;20873;-53
2021/05/04 04:33:27;;;;;;;5.77;4.13;;;;;;;;;;5070503;28;20653;-52
2021/05/04 04:35:53;;;;;;;5.67;3.57;;;;;;;;;;5069895;28;20291;-54
2021/05/04 04:38:20;;;;;;;5.57;3.23;;;;;;;;;;5066506;28;20296;-51
2021/05/04 04:40:50;;;;;;;1.83;1.33;;;;;;;;;;5052257;28;20185;-53
2021/05/04 04:43:16;;;;;;;4.37;2.87;;;;;;;;;;5066218;28;20289;-52
2021/05/04 04:45:43;;;;;;;6.80;3.17;;;;;;;;;;5066966;28;20246;-55
2021/05/04 04:48:11;;;;;;;3.83;2.67;;;;;;;;;;5052822;28;20250;-53
2021/05/04 04:50:38;;;;;;;2.87;2.10;;;;;;;;;;5064495;28;20189;-53
2021/05/04 04:53:06;;;;;;;4.77;3.60;;;;;;;;;;5058595;28;20692;-54
2021/05/04 04:55:31;;;;;;;3.30;2.57;;;;;;;;;;5062078;28;20189;-54
2021/05/04 04:57:57;;;;;;;2.77;1.90;;;;;;;;;;5043559;28;20185;-50
2021/05/04 05:00:24;;;;;;;3.27;2.07;;;;;;;;;;5061446;28;20181;-53
2021/05/04 05:02:49;;;;;;;2.00;1.77;;;;;;;;;;5059834;28;20178;-55
2021/05/04 05:05:19;;;;;;;5.13;2.43;;;;;;;;;;5062538;28;20201;-54
2021/05/04 05:07:47;;;;;;;41.57;4.13;;;;;;;;;;5064245;28;20712;-52
2021/05/04 05:10:12;;;;;;;2.47;1.90;;;;;;;;;;5067859;28;20223;-55
2021/05/04 05:12:42;;;;;;;2.93;2.53;;;;;;;;;;5053270;28;20212;-53
2021/05/04 05:15:14;;;;;;;7.80;2.00;;;;;;;;;;5067775;28;20291;-55
2021/05/04 05:17:41;;;;;;;5.40;2.53;;;;;;;;;;5068718;28;20205;-54
2021/05/04 05:20:10;;;;;;;1.67;1.57;;;;;;;;;;5066913;28;20185;-54
2021/05/04 05:22:36;;;;;;;4.77;2.13;;;;;;;;;;5068496;28;20235;-52
2021/05/04 05:25:01;;;;;;;5.53;2.87;;;;;;;;;;5064585;28;20720;-52
2021/05/04 05:27:30;;;;;;;3.17;1.93;;;;;;;;;;5067215;28;20254;-53
2021/05/04 05:29:57;;;;;;;4.20;2.30;;;;;;;;;;5060941;28;20657;-51
2021/05/04 05:32:27;;;;;;;2.87;1.70;;;;;;;;;;5067942;28;20180;-54
2021/05/04 05:34:54;;;;;;;3.10;2.33;;;;;;;;;;5067366;28;20204;-54
2021/05/04 05:37:19;;;;;;;5.10;2.57;;;;;;;;;;5065349;28;20217;-54
2021/05/04 05:39:45;;;;;;;2.30;2.07;;;;;;;;;;5061539;28;20213;-55
2021/05/04 05:42:13;;;;;;;3.67;2.33;;;;;;;;;;5064315;28;20200;-54
2021/05/04 05:44:43;;;;;;;3.30;1.73;;;;;;;;;;5066513;28;20995;-54
2021/05/04 05:47:08;;;;;;;4.23;2.17;;;;;;;;;;5065307;28;20188;-55
2021/05/04 05:49:33;;;;;;;7.70;2.33;;;;;;;;;;5043738;28;20178;-53
2021/05/04 05:52:01;;;;;;;4.10;2.03;;;;;;;;;;5049693;28;20185;-53
2021/05/04 05:54:27;;;;;;;3.80;1.90;;;;;;;;;;5068924;28;20605;-53
2021/05/04 05:56:52;;;;;;;5.10;1.77;;;;;;;;;;5063759;28;20185;-53
2021/05/04 05:59:18;;;;;;;3.93;2.23;;;;;;;;;;5062035;28;20186;-54
2021/05/04 06:01:45;;;;;;;3.60;1.50;;;;;;;;;;5064515;28;20185;-53
2021/05/04 06:04:12;;;;;;;2.73;1.60;;;;;;;;;;5057360;28;20215;-54
2021/05/04 06:06:38;;;;;;;3.23;1.87;;;;;;;;;;5047696;28;20179;-52
2021/05/04 06:09:05;;;;;;;3.57;2.03;;;;;;;;;;5056859;28;20182;-51
2021/05/04 06:11:32;;;;;;;4.23;2.10;;;;;;;;;;5066709;28;20219;-54
2021/05/04 06:13:58;;;;;;;4.47;2.00;;;;;;;;;;5063513;28;20186;-54
2021/05/04 06:16:23;;;;;;;2.63;2.07;;;;;;;;;;5066748;28;20213;-52
2021/05/04 06:18:53;;;;;;;3.77;2.33;;;;;;;;;;5068198;28;20203;-51
2021/05/04 06:21:20;;;;;;;4.93;2.37;;;;;;;;;;5063462;28;20235;-53
2021/05/04 06:23:48;;;;;;;4.67;1.70;;;;;;;;;;5066650;28;20250;-53
2021/05/04 06:26:13;;;;;;;2.40;1.83;;;;;;;;;;5064708;28;20334;-53
2021/05/04 06:28:40;;;;;;;2.57;1.90;;;;;;;;;;5065621;28;20260;-53
2021/05/04 06:31:06;;;;;;;2.23;1.83;;;;;;;;;;5061797;28;20173;-54
2021/05/04 06:33:34;;;;;;;3.07;1.90;;;;;;;;;;5050049;28;20216;-53
2021/05/04 06:35:59;;;;;;;11.73;2.87;;;;;;;;;;5066373;28;20206;-54
2021/05/04 06:38:27;;;;;;;3.70;1.60;;;;;;;;;;5066852;28;20223;-53
2021/05/04 06:40:54;;;;;;;2.07;1.77;;;;;;;;;;5066023;28;20552;-54
2021/05/04 06:43:19;;;;;;;4.17;2.30;;;;;;;;;;5066165;28;20224;-52
2021/05/04 06:45:47;;;;;;;5.23;2.53;;;;;;;;;;5064912;28;20686;-52
2021/05/04 06:48:12;;;;;;;3.90;2.20;;;;;;;;;;5063863;28;20184;-51
2021/05/04 06:50:40;;;;;;;3.80;2.30;;;;;;;;;;5066057;28;20177;-51
2021/05/04 06:53:07;;;;;;;3.43;2.00;;;;;;;;;;5063009;28;20189;-55
2021/05/04 06:55:37;;;;;;;4.50;1.90;;;;;;;;;;5065008;28;20582;-53
2021/05/04 06:58:07;;;;;;;3.77;2.00;;;;;;;;;;5067163;28;20183;-54
2021/05/04 07:00:34;;;;;;;2.87;2.00;;;;;;;;;;5049082;28;20212;-53
2021/05/04 07:03:03;;;;;;;1.67;1.57;;;;;;;;;;5065421;28;20177;-52
2021/05/04 07:05:28;;;;;;;1.50;1.33;;;;;;;;;;5062994;28;20744;-53
2021/05/04 07:07:53;;;;;;;2.37;1.97;;;;;;;;;;5065325;28;20257;-51
2021/05/04 07:10:21;;;;;;;1.70;1.50;;;;;;;;;;5062301;28;20188;-55
2021/05/04 07:12:46;;;;;;;8.83;1.63;;;;;;;;;;5065767;28;20216;-52
2021/05/04 07:15:11;;;;;;;5.53;2.00;;;;;;;;;;5066715;28;20236;-53
2021/05/04 07:17:36;;;;;;;3.50;2.13;;;;;;;;;;5046385;28;20181;-54
2021/05/04 07:20:03;;;;;;;3.93;1.77;;;;;;;;;;5065630;28;20185;-54
2021/05/04 07:22:33;;;;;;;2.13;1.83;;;;;;;;;;5064823;28;20177;-55
2021/05/04 07:25:00;;;;;;;2.20;1.30;;;;;;;;;;5065037;28;20216;-53
2021/05/04 07:27:30;;;;;;;4.70;1.80;;;;;;;;;;5065673;28;20231;-54
2021/05/04 07:29:57;;;;;;;2.50;2.03;;;;;;;;;;5066321;28;20227;-54
2021/05/04 07:32:23;;;;;;;3.10;2.00;;;;;;;;;;5064221;28;20657;-55
2021/05/04 07:34:53;;;;;;;1.90;1.70;;;;;;;;;;5065174;28;20201;-55
2021/05/04 07:37:18;;;;;;;2.43;1.50;;;;;;;;;;5043144;28;20238;-54
2021/05/04 07:39:45;;;;;;;1.97;1.70;;;;;;;;;;5066715;28;20181;-52
2021/05/04 07:42:13;;;;;;;1.80;1.60;;;;;;;;;;5063568;28;20594;-52
2021/05/04 07:44:38;;;;;;;2.60;1.83;;;;;;;;;;5061738;28;20255;-55
2021/05/04 07:47:08;;;;;;;1.53;1.43;;;;;;;;;;5064876;28;20204;-53
2021/05/04 07:49:36;;;;;;;2.70;1.80;;;;;;;;;;5066640;28;20200;-53
2021/05/04 07:52:06;;;;;;;1.87;1.70;;;;;;;;;;5063868;28;20556;-52
2021/05/04 07:54:34;;;;;;;2.13;1.60;;;;;;;;;;5065144;28;20248;-52
2021/05/04 07:57:01;;;;;;;2.60;1.57;;;;;;;;;;5062853;28;20226;-53
2021/05/04 07:59:26;;;;;;;2.33;1.80;;;;;;;;;;5065255;28;20180;-52
2021/05/04 08:01:54;;;;;;;2.03;1.73;;;;;;;;;;5060785;28;20185;-55
2021/05/04 08:04:22;;;;;;;3.10;1.50;;;;;;;;;;5046657;28;20320;-53
2021/05/04 08:06:49;;;;;;;2.10;1.80;;;;;;;;;;5064850;28;20170;-54
2021/05/04 08:09:14;;;;;;;1.93;1.40;;;;;;;;;;5057518;28;20174;-54
2021/05/04 08:11:42;;;;;;;3.03;1.30;;;;;;;;;;5063998;28;20169;-54
2021/05/04 08:14:08;;;;;;;2.20;1.70;;;;;;;;;;5049833;28;20273;-54
2021/05/04 08:16:38;;;;;;;1.30;1.20;;;;;;;;;;5064317;28;20209;-53
2021/05/04 08:19:05;;;;;;;1.97;1.40;;;;;;;;;;5060548;28;20189;-53
2021/05/04 08:21:35;;;;;;;1.40;1.30;;;;;;;;;;5062559;28;20189;-54
2021/05/04 08:24:05;;;;;;;1.40;1.30;;;;;;;;;;5047288;28;20208;-54
2021/05/04 08:26:32;;;;;;;1.70;1.23;;;;;;;;;;5061203;28;20243;-54
2021/05/04 08:29:00;;;;;;;1.73;1.27;;;;;;;;;;5064300;28;20704;-53
2021/05/04 08:31:27;;;;;;;2.67;1.47;;;;;;;;;;5067037;28;20319;-54
2021/05/04 08:33:53;;;;;;;1.57;1.27;;;;;;;;;;5063946;28;20653;-53
2021/05/04 08:36:20;;;;;;;1.20;1.10;;;;;;;;;;5060930;28;20216;-53
2021/05/04 08:38:45;;;;;;;1.30;1.20;;;;;;;;;;5064332;28;20903;-53
2021/05/04 08:41:14;;;;;;;1.77;1.33;;;;;;;;;;5068248;28;20268;-53
2021/05/04 08:43:39;;;;;;;3.20;1.50;;;;;;;;;;5045554;28;20212;-52
2021/05/04 08:46:05;;;;;;;2.43;1.07;;;;;;;;;;5068087;28;20197;-53
2021/05/04 08:48:30;;;;;;;1.80;1.27;;;;;;;;;;5060035;28;20205;-53
2021/05/04 08:50:57;;;;;;;3.23;1.50;;;;;;;;;;5063937;28;20269;-53
2021/05/04 08:53:25;;;;;;;1.40;1.10;;;;;;;;;;5064129;28;20204;-54
2021/05/04 08:55:50;;;;;;;1.83;1.40;;;;;;;;;;5062295;28;20756;-53
2021/05/04 08:58:20;;;;;;;1.67;1.30;;;;;;;;;;5063908;28;20197;-54
2021/05/04 09:00:46;;;;;;;1.73;1.33;;;;;;;;;;5065299;28;20588;-54
2021/05/04 09:03:23;;;;;;;1.20;1.10;;;;;;;;;;5046191;28;20181;-54
2021/05/04 09:06:02;;;;;;;4.13;1.67;;;;;;;;;;5049004;28;20876;-53
2021/05/04 09:08:56;;;;;;;2.87;1.50;;;;;;;;;;5064310;28;20680;-53
2021/05/04 09:16:52;;;;;;;2.07;1.40;;;;;;;;;;5067681;28;20565;-53
2021/05/04 09:21:46;;;;;;;1.50;1.13;;;;;;;;;;5064096;28;20592;-52
2021/05/04 09:24:20;;;;;;;4.70;1.43;;;;;;;;;;5064258;28;20294;-52
2021/05/04 09:26:45;;;;;;;2.97;1.20;;;;;;;;;;5062748;28;20730;-53
2021/05/04 09:29:11;;;;;;;4.57;1.20;;;;;;;;;;5062696;28;20211;-53
2021/05/04 09:31:39;;;;;;;2.43;1.30;;;;;;;;;;5064362;28;20224;-53
2021/05/04 09:34:14;;;;;;;1.07;1.00;;;;;;;;;;5063158;28;20206;-51
2021/05/04 09:36:42;;;;;;;1.37;0.90;;;;;;;;;;5060715;28;21742;-54
2021/05/04 09:39:07;;;;;;;2.20;1.00;;;;;;;;;;5050978;28;20250;-54
2021/05/04 09:41:35;;;;;;;1.43;1.23;;;;;;;;;;5063741;28;20185;-53
2021/05/04 09:44:05;;;;;;;2.83;1.40;;;;;;;;;;5062463;28;20649;-54
2021/05/04 09:46:45;;;;;;;1.43;0.80;;;;;;;;;;5066876;28;20197;-53
2021/05/04 09:49:46;;;;;;;2.80;1.10;;;;;;;;;;5058967;28;20193;-52
2021/05/04 09:52:19;;;;;;;2.23;1.37;;;;;;;;;;4998659;28;20191;-53
2021/05/04 09:54:45;;;;;;;2.10;1.00;;;;;;;;;;5049363;28;20225;-53
2021/05/04 09:57:30;;;;;;;3.33;1.10;;;;;;;;;;5062156;28;20197;-51
2021/05/04 09:59:57;;;;;;;2.10;1.00;;;;;;;;;;5046701;28;20250;-52
2021/05/04 10:02:23;;;;;;;1.73;1.17;;;;;;;;;;5046286;28;20682;-54
2021/05/04 10:05:15;;;;;;;1.47;1.00;;;;;;;;;;5065082;28;20216;-52
2021/05/04 10:07:41;;;;;;;2.43;1.17;;;;;;;;;;5042617;28;20229;-55
2021/05/04 10:10:29;;;;;;;1.77;0.97;;;;;;;;;;5058339;28;20196;-53
2021/05/04 10:13:00;;;;;;;1.10;1.00;;;;;;;;;;5061850;28;20281;-53
2021/05/04 10:21:30;;;;;;;;;;;;;;;;;;;;;
2021/05/04 10:23:58;;;;;;;1.77;1.30;;;;;;;;;;5060524;28;20209;-52
2021/05/04 10:26:29;;;;;;;0.90;0.80;;;;;;;;;;5039926;28;20521;-53
2021/05/04 10:29:07;;;;;;;1.07;0.90;;;;;;;;;;5056697;28;21232;-52
2021/05/04 10:31:37;;;;;;;0.87;0.67;;;;;;;;;;5059270;28;20187;-51
2021/05/04 10:34:21;;;;;;;1.80;1.20;;;;;;;;;;5057269;28;20276;-52
2021/05/04 10:39:51;;;;;;;1.93;0.90;;;;;;;;;;5040713;28;20208;-54
2021/05/04 10:42:43;;;;;;;1.13;0.80;;;;;;;;;;5057474;28;20200;-51
2021/05/04 10:45:23;;;;;;;0.70;0.67;;;;;;;;;;5057075;28;20213;-52
2021/05/04 10:48:12;;;;;;;0.80;0.80;;;;;;;;;;5056851;28;21812;-53
2021/05/04 10:50:46;;;;;;;1.90;0.90;;;;;;;;;;5040747;28;20193;-53
2021/05/04 10:53:22;;;;;;;1.37;0.90;;;;;;;;;;5057836;28;20652;-52
2021/05/04 11:02:12;;;;;;;1.23;0.80;;;;;;;;;;4974342;28;20680;-53
2021/05/04 11:04:45;;;;;;;1.13;0.63;;;;;;;;;;5062244;28;20806;-55
2021/05/04 11:07:10;;;;;;;1.77;0.80;;;;;;;;;;5059884;28;20188;-55
2021/05/04 11:09:39;;;;;;;1.47;1.03;;;;;;;;;;5063320;28;20531;-53
2021/05/04 11:12:07;;;;;;;1.27;1.00;;;;;;;;;;5062874;28;20183;-54
2021/05/04 11:14:36;;;;;;;1.37;0.90;;;;;;;;;;5058967;28;20207;-53
2021/05/04 11:17:14;;;;;;;1.13;0.77;;;;;;;;;;5062130;28;20190;-54
2021/05/04 11:20:08;;;;;;;;;;;;;;;;;;;;;
2021/05/04 11:23:13;;;;;;;3.63;1.00;;;;;;;;;;5058855;28;20200;-53
2021/05/04 11:26:02;;;;;;;2.33;1.57;;;;;;;;;;4970153;28;20231;-53
2021/05/04 11:28:56;;;;;;;1.47;0.97;;;;;;;;;;4975707;28;20177;-55
2021/05/04 11:31:55;;;;;;;2.07;1.07;;;;;;;;;;4979619;28;20193;-52
2021/05/04 11:40:58;;;;;;;1.83;0.90;;;;;;;;;;4871171;29;20208;-53
2021/05/04 11:43:34;;;;;;;0.90;0.73;;;;;;;;;;4895642;29;20229;-55
2021/05/04 11:46:36;;;;;;;1.53;0.97;;;;;;;;;;4951560;28;20220;-54
2021/05/04 11:49:02;;;;;;;4.50;1.10;;;;;;;;;;5031321;28;20193;-54
2021/05/04 11:52:17;;;;;;;1.73;0.90;;;;;;;;;;5067917;28;20277;-53
2021/05/04 11:54:42;;;;;;;2.10;0.70;;;;;;;;;;5056590;28;20217;-53
2021/05/04 11:57:08;;;;;;;3.17;1.17;;;;;;;;;;5066776;28;20272;-52
2021/05/04 11:59:56;;;;;;;2.40;1.20;;;;;;;;;;5052707;28;20320;-53
2021/05/04 12:02:32;;;;;;;0.70;0.70;;;;;;;;;;5063847;28;20317;-53
2021/05/04 12:05:04;;;;;;;1.57;1.20;;;;;;;;;;5069008;28;20300;-52
2021/05/04 12:07:42;;;;;;;3.03;0.90;;;;;;;;;;5059638;28;20172;-54
2021/05/04 12:10:17;;;;;;;2.67;1.10;;;;;;;;;;5060499;28;20188;-54
2021/05/04 12:12:43;;;;;;;2.67;1.20;;;;;;;;;;5055464;28;20185;-53
2021/05/04 12:15:09;;;;;;;2.07;0.93;;;;;;;;;;5059466;28;20205;-53
2021/05/04 12:17:34;;;;;;;1.63;0.63;;;;;;;;;;5043745;28;20243;-53
2021/05/04 12:20:10;;;;;;;6.83;1.30;;;;;;;;;;5062371;28;20189;-54
2021/05/04 12:22:55;;;;;;;1.77;1.13;;;;;;;;;;5063625;28;20181;-54
2021/05/04 12:25:22;;;;;;;2.83;1.07;;;;;;;;;;5062871;28;20210;-53
2021/05/04 12:27:48;;;;;;;1.27;0.93;;;;;;;;;;5067746;28;20318;-54
2021/05/04 12:30:24;;;;;;;5.17;0.90;;;;;;;;;;5071690;28;20177;-53
2021/05/04 12:32:52;;;;;;;1.87;0.97;;;;;;;;;;5051219;28;20979;-55
2021/05/04 12:35:34;;;;;;;5.90;1.37;;;;;;;;;;5062415;28;20209;-54
2021/05/04 12:38:11;;;;;;;1.93;1.27;;;;;;;;;;5064841;28;20724;-54
2021/05/04 12:40:39;;;;;;;1.10;1.00;;;;;;;;;;5064048;28;20181;-53
2021/05/04 12:43:15;;;;;;;1.40;1.10;;;;;;;;;;5066471;28;20606;-53
2021/05/04 12:46:02;;;;;;;0.70;0.70;;;;;;;;;;5062635;28;20668;-53
2021/05/04 12:51:35;;;;;;;1.43;0.97;;;;;;;;;;5021084;28;20194;-52
2021/05/04 12:54:11;;;;;;;2.77;1.00;;;;;;;;;;5065962;28;20209;-54
2021/05/04 12:57:10;;;;;;;1.57;1.07;;;;;;;;;;5064950;28;20318;-53
2021/05/04 12:59:29;;;;;;;1.93;1.10;;;;;;;;;;5062230;28;20210;-52
2021/05/04 13:02:14;;;;;;;3.17;1.30;;;;;;;;;;5067498;28;20272;-54
2021/05/04 13:04:51;;;;;;;2.10;1.13;;;;;;;;;;5051469;28;20248;-53
2021/05/04 13:07:39;;;;;;;3.20;1.10;;;;;;;;;;5059307;28;20236;-54
2021/05/04 13:11:06;;;;;;;0.90;0.80;;;;;;;;;;5064912;28;20311;-52
2021/05/04 13:18:34;;;;;;;1.63;1.10;;;;;;;;;;5068261;28;20186;-53
2021/05/04 13:21:13;;;;;;;2.20;0.90;;;;;;;;;;5054969;28;20761;-54
2021/05/04 13:37:15;;;;;;;2.17;1.10;;;;;;;;;;5057974;28;20193;-53
2021/05/04 13:47:36;;;;;;;2.40;1.20;;;;;;;;;;5059256;28;20185;-54
2021/05/04 13:50:03;;;;;;;1.53;1.10;;;;;;;;;;5042252;28;20190;-54
2021/05/04 13:52:31;;;;;;;2.10;0.93;;;;;;;;;;5059434;28;20630;-53
2021/05/04 13:54:56;;;;;;;2.50;1.30;;;;;;;;;;5058831;28;20205;-52
2021/05/04 13:57:21;;;;;;;1.93;1.00;;;;;;;;;;5059842;28;20181;-53
2021/05/04 13:59:50;;;;;;;1.63;1.13;;;;;;;;;;5060491;28;20173;-52
2021/05/04 14:02:31;;;;;;;3.13;1.40;;;;;;;;;;5057042;28;20177;-54
2021/05/04 14:26:36;;;;;;;3.27;1.43;;;;;;;;;;5060955;28;20259;-54
2021/05/04 14:29:03;;;;;;;3.80;1.40;;;;;;;;;;5059196;28;20181;-55
2021/05/04 14:31:30;;;;;;;4.37;1.60;;;;;;;;;;5059882;28;20181;-54
2021/05/04 14:33:56;;;;;;;4.23;1.20;;;;;;;;;;5061465;28;20185;-50
2021/05/04 14:39:16;;;;;;;6.87;1.53;;;;;;;;;;5063771;28;20269;-53
2021/05/04 14:42:12;;;;;;;4.73;1.80;;;;;;;;;;5051092;28;20176;-52
2021/05/04 14:44:50;;;;;;;3.90;1.80;;;;;;;;;;5061753;28;20193;-52
2021/05/04 15:00:42;;;;;;;5.97;1.73;;;;;;;;;;5068493;28;20195;-52
2021/05/04 15:03:10;;;;;;;4.20;1.33;;;;;;;;;;5061163;28;20188;-52
2021/05/04 15:05:37;;;;;;;7.87;2.17;;;;;;;;;;5061670;28;20197;-52
2021/05/04 15:08:03;;;;;;;2.60;1.53;;;;;;;;;;5064289;28;20204;-51
2021/05/04 15:10:30;;;;;;;2.63;1.10;;;;;;;;;;5049003;28;20695;-51
2021/05/04 15:12:58;;;;;;;1.27;1.17;;;;;;;;;;5062268;28;20182;-52
2021/05/04 15:15:34;;;;;;;2.03;0.93;;;;;;;;;;5064732;28;20201;-54
2021/05/04 15:18:04;;;;;;;3.77;0.97;;;;;;;;;;5060813;28;20269;-54
2021/05/04 15:21:07;;;;;;;7.37;1.30;;;;;;;;;;5066307;28;20185;-53
2021/05/04 15:23:35;;;;;;;4.87;1.40;;;;;;;;;;5065809;28;20361;-52
2021/05/04 15:26:03;;;;;;;5.93;1.13;;;;;;;;;;5066978;28;20213;-50
2021/05/04 15:28:30;;;;;;;3.80;1.40;;;;;;;;;;5065358;28;20186;-52
2021/05/04 15:30:57;;;;;;;4.37;1.30;;;;;;;;;;5065841;28;20181;-51
2021/05/04 15:33:27;;;;;;;2.90;1.50;;;;;;;;;;5063677;28;20644;-50
2021/05/04 15:35:55;;;;;;;7.17;2.17;;;;;;;;;;5060551;28;20262;-53
2021/05/04 15:38:20;;;;;;;5.23;1.53;;;;;;;;;;5048942;28;20185;-49
2021/05/04 15:40:48;;;;;;;7.10;1.87;;;;;;;;;;5055035;28;20235;-51
2021/05/04 15:43:15;;;;;;;6.63;1.87;;;;;;;;;;5057529;28;20220;-51
2021/05/04 15:48:51;;;;;;;4.83;1.40;;;;;;;;;;5056013;28;20204;-53
2021/05/04 15:54:07;;;;;;;9.67;1.33;;;;;;;;;;5060096;28;20711;-51
2021/05/04 16:02:32;;;;;;;5.33;1.77;;;;;;;;;;5057883;28;20272;-51
2021/05/04 16:07:51;;;;;;;6.43;1.83;;;;;;;;;;5056998;28;20268;-51
2021/05/04 16:10:18;;;;;;;7.23;1.60;;;;;;;;;;5057655;28;20181;-51
2021/05/04 16:12:46;;;;;;;4.13;1.67;;;;;;;;;;5040986;28;20202;-52
2021/05/04 16:15:11;;;;;;;7.13;1.50;;;;;;;;;;5057877;28;20215;-51
2021/05/04 16:17:36;;;;;;;12.67;2.37;;;;;;;;;;5040508;28;20273;-50
2021/05/04 16:20:12;;;;;;;5.07;2.23;;;;;;;;;;5058873;28;20186;-52
2021/05/04 16:22:41;;;;;;;8.07;2.70;;;;;;;;;;5059465;28;20233;-52
2021/05/04 16:25:12;;;;;;;3.87;1.67;;;;;;;;;;5056287;28;20197;-51
2021/05/04 16:28:04;;;;;;;6.03;1.90;;;;;;;;;;5039364;28;20276;-52
2021/05/04 16:30:29;;;;;;;3.93;1.40;;;;;;;;;;5057505;28;20553;-53
2021/05/04 16:32:56;;;;;;;5.87;1.50;;;;;;;;;;5058003;28;20174;-50
2021/05/04 16:35:21;;;;;;;3.37;1.50;;;;;;;;;;5058446;28;20296;-52
2021/05/04 16:37:47;;;;;;;7.57;1.43;;;;;;;;;;5040577;28;20276;-51
2021/05/04 16:40:12;;;;;;;5.00;1.70;;;;;;;;;;5058223;28;20181;-51
2021/05/04 16:42:40;;;;;;;6.00;1.70;;;;;;;;;;5061089;28;20189;-52
2021/05/04 16:45:07;;;;;;;6.80;1.73;;;;;;;;;;5063649;28;20216;-51
2021/05/04 16:47:35;;;;;;;2.97;1.33;;;;;;;;;;5062858;28;20778;-51
2021/05/04 16:50:00;;;;;;;4.67;1.40;;;;;;;;;;5067269;28;20227;-52
2021/05/04 16:52:25;;;;;;;4.80;1.50;;;;;;;;;;5068178;28;20169;-50